sensor_id;sensor_type;location;lat;lon;timestamp;P1;durP1;ratioP1;P2;durP2;ratioP2
12846;SDS011;6492;48.128;8.320;2023-07-31T00:01:36;3.07;;;2.00;;
12846;SDS011;6492;48.128;8.320;2023-07-31T00:05:40;3.70;;;2.27;;
12846;SDS011;6492;48.128;8.320;2023-07-31T00:09:41;3.70;;;2.50;;
12846;SDS011;6492;48.128;8.320;2023-07-31T00:13:43;3.50;;;2.57;;
12846;SDS011;6492;48.128;8.320;2023-07-31T00:17:45;4.97;;;2.50;;
12846;SDS011;6492;48.128;8.320;2023-07-31T00:21:49;2.77;;;2.20;;
12846;SDS011;6492;48.128;8.320;2023-07-31T00:25:50;3.00;;;1.90;;
12846;SDS011;6492;48.128;8.320;2023-07-31T00:29:52;2.80;;;2.17;;
12846;SDS011;6492;48.128;8.320;2023-07-31T00:33:54;2.03;;;1.90;;
12846;SDS011;6492;48.128;8.320;2023-07-31T00:37:57;2.10;;;1.90;;
12846;SDS011;6492;48.128;8.320;2023-07-31T00:41:59;3.30;;;2.50;;
12846;SDS011;6492;48.128;8.320;2023-07-31T00:46:01;4.67;;;2.73;;
12846;SDS011;6492;48.128;8.320;2023-07-31T00:50:03;4.80;;;2.47;;
12846;SDS011;6492;48.128;8.320;2023-07-31T00:54:08;2.67;;;2.13;;
12846;SDS011;6492;48.128;8.320;2023-07-31T00:58:10;3.87;;;2.47;;
12846;SDS011;6492;48.128;8.320;2023-07-31T01:02:12;2.30;;;2.10;;
12846;SDS011;6492;48.128;8.320;2023-07-31T01:06:14;4.23;;;2.57;;
12846;SDS011;6492;48.128;8.320;2023-07-31T01:10:27;2.60;;;2.40;;
12846;SDS011;6492;48.128;8.320;2023-07-31T01:14:34;3.93;;;2.40;;
12846;SDS011;6492;48.128;8.320;2023-07-31T01:18:35;2.87;;;2.23;;
12846;SDS011;6492;48.128;8.320;2023-07-31T01:22:47;3.50;;;2.40;;
12846;SDS011;6492;48.128;8.320;2023-07-31T01:27:04;4.37;;;2.63;;
12846;SDS011;6492;48.128;8.320;2023-07-31T01:31:07;3.90;;;2.57;;
12846;SDS011;6492;48.128;8.320;2023-07-31T01:35:13;6.60;;;2.80;;
12846;SDS011;6492;48.128;8.320;2023-07-31T01:39:14;3.80;;;2.63;;
12846;SDS011;6492;48.128;8.320;2023-07-31T01:43:17;4.23;;;2.77;;
12846;SDS011;6492;48.128;8.320;2023-07-31T01:47:19;4.10;;;2.60;;
12846;SDS011;6492;48.128;8.320;2023-07-31T01:51:21;3.20;;;2.90;;
12846;SDS011;6492;48.128;8.320;2023-07-31T01:55:23;6.17;;;2.93;;
12846;SDS011;6492;48.128;8.320;2023-07-31T01:59:26;9.87;;;3.30;;
12846;SDS011;6492;48.128;8.320;2023-07-31T02:03:29;3.77;;;2.90;;
12846;SDS011;6492;48.128;8.320;2023-07-31T02:07:30;6.10;;;3.23;;
12846;SDS011;6492;48.128;8.320;2023-07-31T02:11:32;2.80;;;2.50;;
12846;SDS011;6492;48.128;8.320;2023-07-31T02:15:36;2.70;;;2.50;;
12846;SDS011;6492;48.128;8.320;2023-07-31T02:19:38;4.17;;;2.27;;
12846;SDS011;6492;48.128;8.320;2023-07-31T02:23:40;3.23;;;2.20;;
12846;SDS011;6492;48.128;8.320;2023-07-31T02:27:42;3.37;;;2.80;;
12846;SDS011;6492;48.128;8.320;2023-07-31T02:31:45;4.20;;;2.53;;
12846;SDS011;6492;48.128;8.320;2023-07-31T02:35:46;2.70;;;2.50;;
12846;SDS011;6492;48.128;8.320;2023-07-31T02:39:48;5.40;;;2.50;;
12846;SDS011;6492;48.128;8.320;2023-07-31T02:43:50;4.30;;;2.87;;
12846;SDS011;6492;48.128;8.320;2023-07-31T02:47:53;3.97;;;2.63;;
12846;SDS011;6492;48.128;8.320;2023-07-31T02:51:55;5.93;;;2.90;;
12846;SDS011;6492;48.128;8.320;2023-07-31T02:55:56;5.13;;;2.77;;
12846;SDS011;6492;48.128;8.320;2023-07-31T02:59:58;4.83;;;2.90;;
12846;SDS011;6492;48.128;8.320;2023-07-31T03:04:01;3.23;;;2.90;;
12846;SDS011;6492;48.128;8.320;2023-07-31T03:08:03;3.87;;;2.90;;
12846;SDS011;6492;48.128;8.320;2023-07-31T03:12:05;4.10;;;2.87;;
12846;SDS011;6492;48.128;8.320;2023-07-31T03:16:08;4.63;;;2.60;;
12846;SDS011;6492;48.128;8.320;2023-07-31T03:20:12;2.70;;;2.10;;
12846;SDS011;6492;48.128;8.320;2023-07-31T03:24:13;2.63;;;2.40;;
12846;SDS011;6492;48.128;8.320;2023-07-31T03:28:15;3.47;;;2.60;;
12846;SDS011;6492;48.128;8.320;2023-07-31T03:32:17;4.10;;;2.70;;
12846;SDS011;6492;48.128;8.320;2023-07-31T03:36:20;3.37;;;2.57;;
12846;SDS011;6492;48.128;8.320;2023-07-31T03:40:22;4.10;;;2.67;;
12846;SDS011;6492;48.128;8.320;2023-07-31T03:44:24;4.63;;;2.77;;
12846;SDS011;6492;48.128;8.320;2023-07-31T03:48:25;3.77;;;2.70;;
12846;SDS011;6492;48.128;8.320;2023-07-31T03:52:28;3.37;;;2.73;;
12846;SDS011;6492;48.128;8.320;2023-07-31T03:56:30;6.20;;;3.00;;
12846;SDS011;6492;48.128;8.320;2023-07-31T04:00:32;4.90;;;2.63;;
12846;SDS011;6492;48.128;8.320;2023-07-31T04:04:34;3.37;;;2.50;;
12846;SDS011;6492;48.128;8.320;2023-07-31T04:08:38;4.93;;;2.80;;
12846;SDS011;6492;48.128;8.320;2023-07-31T04:12:40;3.10;;;2.67;;
12846;SDS011;6492;48.128;8.320;2023-07-31T04:16:41;6.17;;;3.10;;
12846;SDS011;6492;48.128;8.320;2023-07-31T04:20:43;4.60;;;2.60;;
12846;SDS011;6492;48.128;8.320;2023-07-31T04:24:46;4.37;;;2.67;;
12846;SDS011;6492;48.128;8.320;2023-07-31T04:28:48;3.77;;;2.40;;
12846;SDS011;6492;48.128;8.320;2023-07-31T04:32:50;4.57;;;2.53;;
12846;SDS011;6492;48.128;8.320;2023-07-31T04:36:52;5.77;;;2.80;;
12846;SDS011;6492;48.128;8.320;2023-07-31T04:40:55;3.67;;;2.70;;
12846;SDS011;6492;48.128;8.320;2023-07-31T04:44:56;3.80;;;2.83;;
12846;SDS011;6492;48.128;8.320;2023-07-31T04:48:58;2.77;;;2.50;;
12846;SDS011;6492;48.128;8.320;2023-07-31T04:53:00;3.97;;;2.50;;
12846;SDS011;6492;48.128;8.320;2023-07-31T04:57:03;3.30;;;2.50;;
12846;SDS011;6492;48.128;8.320;2023-07-31T05:01:06;7.43;;;2.80;;
12846;SDS011;6492;48.128;8.320;2023-07-31T05:05:08;4.07;;;2.60;;
12846;SDS011;6492;48.128;8.320;2023-07-31T05:09:10;4.57;;;2.50;;
12846;SDS011;6492;48.128;8.320;2023-07-31T05:13:13;2.97;;;2.30;;
12846;SDS011;6492;48.128;8.320;2023-07-31T05:17:15;3.73;;;2.30;;
12846;SDS011;6492;48.128;8.320;2023-07-31T05:21:17;3.97;;;2.40;;
12846;SDS011;6492;48.128;8.320;2023-07-31T05:25:18;7.23;;;2.50;;
12846;SDS011;6492;48.128;8.320;2023-07-31T05:29:22;4.00;;;2.60;;
12846;SDS011;6492;48.128;8.320;2023-07-31T05:33:23;4.70;;;2.23;;
12846;SDS011;6492;48.128;8.320;2023-07-31T05:37:25;4.23;;;2.70;;
12846;SDS011;6492;48.128;8.320;2023-07-31T05:41:27;3.10;;;2.20;;
12846;SDS011;6492;48.128;8.320;2023-07-31T05:45:30;4.00;;;2.10;;
12846;SDS011;6492;48.128;8.320;2023-07-31T05:49:32;6.00;;;2.33;;
12846;SDS011;6492;48.128;8.320;2023-07-31T05:53:33;3.83;;;2.27;;
12846;SDS011;6492;48.128;8.320;2023-07-31T05:57:38;3.67;;;2.00;;
12846;SDS011;6492;48.128;8.320;2023-07-31T06:01:41;4.53;;;2.33;;
12846;SDS011;6492;48.128;8.320;2023-07-31T06:05:43;5.37;;;2.60;;
12846;SDS011;6492;48.128;8.320;2023-07-31T06:09:45;5.10;;;3.10;;
12846;SDS011;6492;48.128;8.320;2023-07-31T06:13:46;6.77;;;2.50;;
12846;SDS011;6492;48.128;8.320;2023-07-31T06:17:50;4.43;;;2.20;;
12846;SDS011;6492;48.128;8.320;2023-07-31T06:21:52;4.20;;;2.37;;
12846;SDS011;6492;48.128;8.320;2023-07-31T06:25:54;5.40;;;2.60;;
12846;SDS011;6492;48.128;8.320;2023-07-31T06:29:55;5.87;;;2.30;;
12846;SDS011;6492;48.128;8.320;2023-07-31T06:33:59;4.37;;;2.60;;
12846;SDS011;6492;48.128;8.320;2023-07-31T06:38:01;5.03;;;2.30;;
12846;SDS011;6492;48.128;8.320;2023-07-31T06:42:03;3.07;;;2.27;;
12846;SDS011;6492;48.128;8.320;2023-07-31T06:46:06;2.93;;;2.10;;
12846;SDS011;6492;48.128;8.320;2023-07-31T06:50:10;5.07;;;2.30;;
12846;SDS011;6492;48.128;8.320;2023-07-31T06:54:12;5.60;;;2.37;;
12846;SDS011;6492;48.128;8.320;2023-07-31T06:58:13;4.63;;;2.30;;
12846;SDS011;6492;48.128;8.320;2023-07-31T07:02:15;3.33;;;2.17;;
12846;SDS011;6492;48.128;8.320;2023-07-31T07:06:18;6.63;;;2.57;;
12846;SDS011;6492;48.128;8.320;2023-07-31T07:10:20;4.93;;;2.60;;
12846;SDS011;6492;48.128;8.320;2023-07-31T07:14:22;5.10;;;2.80;;
12846;SDS011;6492;48.128;8.320;2023-07-31T07:18:24;4.27;;;2.57;;
12846;SDS011;6492;48.128;8.320;2023-07-31T07:22:27;4.80;;;2.30;;
12846;SDS011;6492;48.128;8.320;2023-07-31T07:26:29;4.10;;;2.30;;
12846;SDS011;6492;48.128;8.320;2023-07-31T07:30:30;3.97;;;2.33;;
12846;SDS011;6492;48.128;8.320;2023-07-31T07:34:32;5.67;;;2.43;;
12846;SDS011;6492;48.128;8.320;2023-07-31T07:38:35;4.90;;;2.47;;
12846;SDS011;6492;48.128;8.320;2023-07-31T07:42:39;2.40;;;2.17;;
12846;SDS011;6492;48.128;8.320;2023-07-31T07:46:41;7.30;;;2.33;;
12846;SDS011;6492;48.128;8.320;2023-07-31T07:50:43;6.27;;;2.20;;
12846;SDS011;6492;48.128;8.320;2023-07-31T07:54:46;6.30;;;2.45;;
12846;SDS011;6492;48.128;8.320;2023-07-31T07:58:48;4.15;;;2.45;;
12846;SDS011;6492;48.128;8.320;2023-07-31T08:02:50;3.35;;;2.17;;
12846;SDS011;6492;48.128;8.320;2023-07-31T08:06:52;4.03;;;1.98;;
12846;SDS011;6492;48.128;8.320;2023-07-31T08:10:55;3.20;;;2.33;;
12846;SDS011;6492;48.128;8.320;2023-07-31T08:14:57;5.43;;;2.65;;
12846;SDS011;6492;48.128;8.320;2023-07-31T08:19:00;4.13;;;2.57;;
12846;SDS011;6492;48.128;8.320;2023-07-31T08:23:01;3.67;;;2.45;;
12846;SDS011;6492;48.128;8.320;2023-07-31T08:27:05;4.53;;;2.47;;
12846;SDS011;6492;48.128;8.320;2023-07-31T08:31:07;3.90;;;2.50;;
12846;SDS011;6492;48.128;8.320;2023-07-31T08:35:09;3.38;;;2.08;;
12846;SDS011;6492;48.128;8.320;2023-07-31T08:39:11;2.60;;;2.25;;
12846;SDS011;6492;48.128;8.320;2023-07-31T08:43:14;3.40;;;2.30;;
12846;SDS011;6492;48.128;8.320;2023-07-31T08:47:16;4.15;;;2.28;;
12846;SDS011;6492;48.128;8.320;2023-07-31T08:51:18;6.13;;;2.10;;
12846;SDS011;6492;48.128;8.320;2023-07-31T08:55:20;5.53;;;2.50;;
12846;SDS011;6492;48.128;8.320;2023-07-31T08:59:25;4.00;;;2.15;;
12846;SDS011;6492;48.128;8.320;2023-07-31T09:03:27;3.22;;;2.30;;
12846;SDS011;6492;48.128;8.320;2023-07-31T09:07:32;4.63;;;2.50;;
12846;SDS011;6492;48.128;8.320;2023-07-31T09:11:36;4.20;;;2.90;;
12846;SDS011;6492;48.128;8.320;2023-07-31T09:15:39;3.78;;;2.58;;
12846;SDS011;6492;48.128;8.320;2023-07-31T09:19:45;3.55;;;2.30;;
12846;SDS011;6492;48.128;8.320;2023-07-31T09:23:47;4.03;;;2.28;;
12846;SDS011;6492;48.128;8.320;2023-07-31T09:27:49;4.13;;;2.53;;
12846;SDS011;6492;48.128;8.320;2023-07-31T09:31:53;2.83;;;2.10;;
12846;SDS011;6492;48.128;8.320;2023-07-31T09:35:56;4.43;;;2.35;;
12846;SDS011;6492;48.128;8.320;2023-07-31T09:40:01;3.38;;;2.33;;
12846;SDS011;6492;48.128;8.320;2023-07-31T09:44:02;5.57;;;2.67;;
12846;SDS011;6492;48.128;8.320;2023-07-31T09:48:08;4.00;;;2.10;;
12846;SDS011;6492;48.128;8.320;2023-07-31T09:52:11;6.22;;;2.50;;
12846;SDS011;6492;48.128;8.320;2023-07-31T09:56:15;2.75;;;2.30;;
12846;SDS011;6492;48.128;8.320;2023-07-31T10:00:19;3.80;;;2.33;;
12846;SDS011;6492;48.128;8.320;2023-07-31T10:04:27;3.40;;;2.15;;
12846;SDS011;6492;48.128;8.320;2023-07-31T10:08:30;4.30;;;2.20;;
12846;SDS011;6492;48.128;8.320;2023-07-31T10:12:36;7.15;;;2.35;;
12846;SDS011;6492;48.128;8.320;2023-07-31T10:16:39;2.75;;;2.17;;
12846;SDS011;6492;48.128;8.320;2023-07-31T10:20:44;3.10;;;2.10;;
12846;SDS011;6492;48.128;8.320;2023-07-31T10:24:48;4.55;;;2.40;;
12846;SDS011;6492;48.128;8.320;2023-07-31T10:28:51;3.58;;;2.20;;
12846;SDS011;6492;48.128;8.320;2023-07-31T10:32:54;3.13;;;2.00;;
12846;SDS011;6492;48.128;8.320;2023-07-31T10:41:30;3.17;;;2.03;;
12846;SDS011;6492;48.128;8.320;2023-07-31T10:45:33;2.80;;;2.50;;
12846;SDS011;6492;48.128;8.320;2023-07-31T10:49:37;4.60;;;2.53;;
12846;SDS011;6492;48.128;8.320;2023-07-31T10:53:40;2.70;;;2.08;;
12846;SDS011;6492;48.128;8.320;2023-07-31T10:57:46;2.45;;;2.05;;
12846;SDS011;6492;48.128;8.320;2023-07-31T11:01:52;3.40;;;2.30;;
12846;SDS011;6492;48.128;8.320;2023-07-31T11:05:59;2.95;;;2.60;;
12846;SDS011;6492;48.128;8.320;2023-07-31T11:10:03;4.90;;;2.55;;
12846;SDS011;6492;48.128;8.320;2023-07-31T11:14:07;3.65;;;2.58;;
12846;SDS011;6492;48.128;8.320;2023-07-31T11:18:11;4.22;;;2.58;;
12846;SDS011;6492;48.128;8.320;2023-07-31T11:22:13;5.72;;;2.85;;
12846;SDS011;6492;48.128;8.320;2023-07-31T11:26:16;4.97;;;3.08;;
12846;SDS011;6492;48.128;8.320;2023-07-31T11:30:20;2.95;;;2.65;;
12846;SDS011;6492;48.128;8.320;2023-07-31T11:34:21;3.88;;;2.88;;
12846;SDS011;6492;48.128;8.320;2023-07-31T11:38:23;3.55;;;2.97;;
12846;SDS011;6492;48.128;8.320;2023-07-31T11:42:27;3.65;;;2.78;;
12846;SDS011;6492;48.128;8.320;2023-07-31T11:46:31;4.13;;;3.20;;
12846;SDS011;6492;48.128;8.320;2023-07-31T11:50:34;4.38;;;3.08;;
12846;SDS011;6492;48.128;8.320;2023-07-31T11:54:37;4.82;;;2.80;;
12846;SDS011;6492;48.128;8.320;2023-07-31T11:58:41;4.68;;;2.83;;
12846;SDS011;6492;48.128;8.320;2023-07-31T12:02:45;4.25;;;2.83;;
12846;SDS011;6492;48.128;8.320;2023-07-31T12:06:49;4.03;;;3.00;;
12846;SDS011;6492;48.128;8.320;2023-07-31T12:10:54;4.47;;;2.63;;
12846;SDS011;6492;48.128;8.320;2023-07-31T12:15:05;4.10;;;2.75;;
12846;SDS011;6492;48.128;8.320;2023-07-31T12:19:20;3.03;;;2.58;;
12846;SDS011;6492;48.128;8.320;2023-07-31T12:23:23;4.50;;;3.05;;
12846;SDS011;6492;48.128;8.320;2023-07-31T12:27:54;4.45;;;2.95;;
12846;SDS011;6492;48.128;8.320;2023-07-31T12:31:57;5.57;;;3.10;;
12846;SDS011;6492;48.128;8.320;2023-07-31T12:36:10;5.40;;;3.30;;
12846;SDS011;6492;48.128;8.320;2023-07-31T12:40:13;4.25;;;3.10;;
12846;SDS011;6492;48.128;8.320;2023-07-31T12:44:19;3.47;;;2.90;;
12846;SDS011;6492;48.128;8.320;2023-07-31T12:48:30;4.13;;;3.28;;
12846;SDS011;6492;48.128;8.320;2023-07-31T12:52:38;3.20;;;2.80;;
12846;SDS011;6492;48.128;8.320;2023-07-31T12:56:45;3.58;;;3.10;;
12846;SDS011;6492;48.128;8.320;2023-07-31T13:00:52;3.42;;;3.13;;
12846;SDS011;6492;48.128;8.320;2023-07-31T13:04:58;4.18;;;3.50;;
12846;SDS011;6492;48.128;8.320;2023-07-31T13:09:09;4.80;;;3.05;;
12846;SDS011;6492;48.128;8.320;2023-07-31T13:13:24;3.72;;;3.00;;
12846;SDS011;6492;48.128;8.320;2023-07-31T13:17:30;4.07;;;3.35;;
12846;SDS011;6492;48.128;8.320;2023-07-31T13:21:35;6.07;;;3.50;;
12846;SDS011;6492;48.128;8.320;2023-07-31T13:25:46;3.75;;;2.88;;
12846;SDS011;6492;48.128;8.320;2023-07-31T13:29:56;4.10;;;2.85;;
12846;SDS011;6492;48.128;8.320;2023-07-31T13:34:06;4.80;;;3.05;;
12846;SDS011;6492;48.128;8.320;2023-07-31T13:38:09;3.35;;;2.83;;
12846;SDS011;6492;48.128;8.320;2023-07-31T13:42:14;4.32;;;3.20;;
12846;SDS011;6492;48.128;8.320;2023-07-31T13:46:22;3.58;;;3.08;;
12846;SDS011;6492;48.128;8.320;2023-07-31T13:50:27;5.07;;;3.08;;
12846;SDS011;6492;48.128;8.320;2023-07-31T13:54:37;3.60;;;3.05;;
12846;SDS011;6492;48.128;8.320;2023-07-31T13:58:41;3.97;;;2.60;;
12846;SDS011;6492;48.128;8.320;2023-07-31T14:02:47;3.50;;;2.90;;
12846;SDS011;6492;48.128;8.320;2023-07-31T14:06:49;4.70;;;2.88;;
12846;SDS011;6492;48.128;8.320;2023-07-31T14:10:52;5.20;;;2.97;;
12846;SDS011;6492;48.128;8.320;2023-07-31T14:14:58;5.20;;;3.20;;
12846;SDS011;6492;48.128;8.320;2023-07-31T14:19:06;3.92;;;2.92;;
12846;SDS011;6492;48.128;8.320;2023-07-31T14:23:14;3.67;;;2.72;;
12846;SDS011;6492;48.128;8.320;2023-07-31T14:27:20;4.70;;;3.10;;
12846;SDS011;6492;48.128;8.320;2023-07-31T14:31:24;5.70;;;3.40;;
12846;SDS011;6492;48.128;8.320;2023-07-31T14:35:29;4.20;;;2.63;;
12846;SDS011;6492;48.128;8.320;2023-07-31T14:39:32;3.58;;;2.90;;
12846;SDS011;6492;48.128;8.320;2023-07-31T14:43:36;5.00;;;2.97;;
12846;SDS011;6492;48.128;8.320;2023-07-31T14:47:42;4.93;;;3.00;;
12846;SDS011;6492;48.128;8.320;2023-07-31T14:51:45;3.22;;;2.65;;
12846;SDS011;6492;48.128;8.320;2023-07-31T14:55:48;4.15;;;2.90;;
12846;SDS011;6492;48.128;8.320;2023-07-31T14:59:50;4.47;;;2.70;;
12846;SDS011;6492;48.128;8.320;2023-07-31T15:03:55;4.55;;;3.50;;
12846;SDS011;6492;48.128;8.320;2023-07-31T15:07:59;3.38;;;2.80;;
12846;SDS011;6492;48.128;8.320;2023-07-31T15:12:02;3.83;;;2.60;;
12846;SDS011;6492;48.128;8.320;2023-07-31T15:16:05;3.35;;;3.03;;
12846;SDS011;6492;48.128;8.320;2023-07-31T15:20:11;3.55;;;2.70;;
12846;SDS011;6492;48.128;8.320;2023-07-31T15:24:13;3.90;;;2.83;;
12846;SDS011;6492;48.128;8.320;2023-07-31T15:28:21;4.97;;;2.78;;
12846;SDS011;6492;48.128;8.320;2023-07-31T15:32:24;3.38;;;2.90;;
12846;SDS011;6492;48.128;8.320;2023-07-31T15:36:29;4.03;;;3.10;;
12846;SDS011;6492;48.128;8.320;2023-07-31T15:40:31;3.47;;;2.75;;
12846;SDS011;6492;48.128;8.320;2023-07-31T15:44:37;3.88;;;2.90;;
12846;SDS011;6492;48.128;8.320;2023-07-31T15:48:39;3.67;;;2.83;;
12846;SDS011;6492;48.128;8.320;2023-07-31T15:52:43;4.38;;;2.95;;
12846;SDS011;6492;48.128;8.320;2023-07-31T15:57:00;10.52;;;7.45;;
12846;SDS011;6492;48.128;8.320;2023-07-31T16:01:03;4.03;;;2.80;;
12846;SDS011;6492;48.128;8.320;2023-07-31T16:05:21;4.72;;;2.80;;
12846;SDS011;6492;48.128;8.320;2023-07-31T16:13:42;4.93;;;3.00;;
12846;SDS011;6492;48.128;8.320;2023-07-31T16:17:45;3.60;;;3.10;;
12846;SDS011;6492;48.128;8.320;2023-07-31T16:21:48;3.40;;;2.65;;
12846;SDS011;6492;48.128;8.320;2023-07-31T16:25:58;5.43;;;2.83;;
12846;SDS011;6492;48.128;8.320;2023-07-31T16:30:03;3.78;;;3.15;;
12846;SDS011;6492;48.128;8.320;2023-07-31T16:34:07;5.05;;;2.70;;
12846;SDS011;6492;48.128;8.320;2023-07-31T16:38:12;3.22;;;2.63;;
12846;SDS011;6492;48.128;8.320;2023-07-31T16:42:18;3.95;;;2.78;;
12846;SDS011;6492;48.128;8.320;2023-07-31T16:46:26;4.40;;;2.70;;
12846;SDS011;6492;48.128;8.320;2023-07-31T16:50:30;3.70;;;2.60;;
12846;SDS011;6492;48.128;8.320;2023-07-31T16:54:37;6.43;;;3.30;;
12846;SDS011;6492;48.128;8.320;2023-07-31T16:58:41;3.55;;;2.65;;
12846;SDS011;6492;48.128;8.320;2023-07-31T17:02:48;5.47;;;2.90;;
12846;SDS011;6492;48.128;8.320;2023-07-31T17:06:58;3.20;;;2.63;;
12846;SDS011;6492;48.128;8.320;2023-07-31T17:11:05;3.58;;;2.28;;
12846;SDS011;6492;48.128;8.320;2023-07-31T17:15:09;4.10;;;2.38;;
12846;SDS011;6492;48.128;8.320;2023-07-31T17:19:12;4.45;;;2.60;;
12846;SDS011;6492;48.128;8.320;2023-07-31T17:23:16;4.38;;;2.53;;
12846;SDS011;6492;48.128;8.320;2023-07-31T17:27:22;3.05;;;2.20;;
12846;SDS011;6492;48.128;8.320;2023-07-31T17:31:27;3.33;;;2.60;;
12846;SDS011;6492;48.128;8.320;2023-07-31T17:35:35;3.00;;;2.50;;
12846;SDS011;6492;48.128;8.320;2023-07-31T17:39:40;3.20;;;2.60;;
12846;SDS011;6492;48.128;8.320;2023-07-31T17:43:47;3.80;;;2.88;;
12846;SDS011;6492;48.128;8.320;2023-07-31T17:47:51;4.82;;;2.40;;
12846;SDS011;6492;48.128;8.320;2023-07-31T17:51:57;3.78;;;3.10;;
12846;SDS011;6492;48.128;8.320;2023-07-31T17:56:08;3.60;;;2.88;;
12846;SDS011;6492;48.128;8.320;2023-07-31T18:00:20;3.05;;;2.75;;
12846;SDS011;6492;48.128;8.320;2023-07-31T18:04:28;3.90;;;2.70;;
12846;SDS011;6492;48.128;8.320;2023-07-31T19:33:51;5.37;;;2.80;;
12846;SDS011;6492;48.128;8.320;2023-07-31T19:37:53;4.13;;;2.57;;
12846;SDS011;6492;48.128;8.320;2023-07-31T19:41:55;4.70;;;2.90;;
12846;SDS011;6492;48.128;8.320;2023-07-31T19:45:56;5.53;;;4.03;;
12846;SDS011;6492;48.128;8.320;2023-07-31T19:50:00;4.87;;;3.37;;
12846;SDS011;6492;48.128;8.320;2023-07-31T19:54:04;4.07;;;3.53;;
12846;SDS011;6492;48.128;8.320;2023-07-31T19:58:07;5.00;;;3.37;;
12846;SDS011;6492;48.128;8.320;2023-07-31T20:02:08;3.30;;;2.77;;
12846;SDS011;6492;48.128;8.320;2023-07-31T20:06:12;5.37;;;2.77;;
12846;SDS011;6492;48.128;8.320;2023-07-31T20:10:14;3.93;;;2.93;;
12846;SDS011;6492;48.128;8.320;2023-07-31T20:14:16;3.30;;;2.90;;
12846;SDS011;6492;48.128;8.320;2023-07-31T20:18:21;4.63;;;3.10;;
12846;SDS011;6492;48.128;8.320;2023-07-31T20:22:26;4.23;;;2.77;;
12846;SDS011;6492;48.128;8.320;2023-07-31T20:26:28;4.03;;;2.87;;
12846;SDS011;6492;48.128;8.320;2023-07-31T20:30:29;4.63;;;3.00;;
12846;SDS011;6492;48.128;8.320;2023-07-31T20:34:31;5.83;;;3.00;;
12846;SDS011;6492;48.128;8.320;2023-07-31T20:38:34;4.90;;;2.93;;
12846;SDS011;6492;48.128;8.320;2023-07-31T20:42:36;4.03;;;2.90;;
12846;SDS011;6492;48.128;8.320;2023-07-31T20:46:38;4.47;;;2.93;;
12846;SDS011;6492;48.128;8.320;2023-07-31T20:50:40;4.03;;;3.10;;
12846;SDS011;6492;48.128;8.320;2023-07-31T20:54:43;4.47;;;3.03;;
12846;SDS011;6492;48.128;8.320;2023-07-31T20:58:46;6.57;;;3.30;;
12846;SDS011;6492;48.128;8.320;2023-07-31T21:02:49;4.00;;;3.00;;
12846;SDS011;6492;48.128;8.320;2023-07-31T21:06:50;2.87;;;2.60;;
12846;SDS011;6492;48.128;8.320;2023-07-31T21:10:53;3.80;;;2.70;;
12846;SDS011;6492;48.128;8.320;2023-07-31T21:14:55;3.47;;;2.97;;
12846;SDS011;6492;48.128;8.320;2023-07-31T21:18:57;3.63;;;2.93;;
12846;SDS011;6492;48.128;8.320;2023-07-31T21:22:59;3.90;;;2.93;;
12846;SDS011;6492;48.128;8.320;2023-07-31T21:27:11;5.30;;;3.03;;
12846;SDS011;6492;48.128;8.320;2023-07-31T21:31:13;4.37;;;3.00;;
12846;SDS011;6492;48.128;8.320;2023-07-31T21:35:16;4.87;;;3.30;;
12846;SDS011;6492;48.128;8.320;2023-07-31T21:39:18;4.27;;;3.30;;
12846;SDS011;6492;48.128;8.320;2023-07-31T21:43:22;4.00;;;3.03;;
12846;SDS011;6492;48.128;8.320;2023-07-31T21:47:24;4.27;;;3.03;;
12846;SDS011;6492;48.128;8.320;2023-07-31T21:51:26;4.57;;;3.20;;
12846;SDS011;6492;48.128;8.320;2023-07-31T21:55:27;4.10;;;3.10;;
12846;SDS011;6492;48.128;8.320;2023-07-31T21:59:30;4.63;;;3.30;;
12846;SDS011;6492;48.128;8.320;2023-07-31T22:03:33;4.83;;;3.30;;
12846;SDS011;6492;48.128;8.320;2023-07-31T22:07:35;4.50;;;3.37;;
12846;SDS011;6492;48.128;8.320;2023-07-31T22:11:37;7.43;;;3.80;;
12846;SDS011;6492;48.128;8.320;2023-07-31T22:15:40;5.27;;;3.47;;
12846;SDS011;6492;48.128;8.320;2023-07-31T22:19:42;6.33;;;4.00;;
12846;SDS011;6492;48.128;8.320;2023-07-31T22:23:44;4.90;;;3.47;;
12846;SDS011;6492;48.128;8.320;2023-07-31T22:27:45;4.83;;;3.73;;
12846;SDS011;6492;48.128;8.320;2023-07-31T22:31:49;5.67;;;3.53;;
12846;SDS011;6492;48.128;8.320;2023-07-31T22:35:50;6.57;;;3.57;;
12846;SDS011;6492;48.128;8.320;2023-07-31T22:39:52;5.77;;;3.33;;
12846;SDS011;6492;48.128;8.320;2023-07-31T22:43:54;5.07;;;4.03;;
12846;SDS011;6492;48.128;8.320;2023-07-31T22:47:57;3.50;;;3.20;;
12846;SDS011;6492;48.128;8.320;2023-07-31T22:51:59;7.77;;;3.40;;
12846;SDS011;6492;48.128;8.320;2023-07-31T22:56:03;5.40;;;3.93;;
12846;SDS011;6492;48.128;8.320;2023-07-31T23:00:06;5.30;;;3.60;;
12846;SDS011;6492;48.128;8.320;2023-07-31T23:04:11;7.10;;;3.87;;
12846;SDS011;6492;48.128;8.320;2023-07-31T23:08:12;5.17;;;3.67;;
12846;SDS011;6492;48.128;8.320;2023-07-31T23:12:14;4.90;;;3.63;;
12846;SDS011;6492;48.128;8.320;2023-07-31T23:16:16;5.03;;;3.70;;
12846;SDS011;6492;48.128;8.320;2023-07-31T23:20:19;5.07;;;3.73;;
12846;SDS011;6492;48.128;8.320;2023-07-31T23:24:21;6.13;;;3.93;;
12846;SDS011;6492;48.128;8.320;2023-07-31T23:28:22;4.43;;;3.43;;
12846;SDS011;6492;48.128;8.320;2023-07-31T23:32:24;5.60;;;3.63;;
12846;SDS011;6492;48.128;8.320;2023-07-31T23:36:27;6.20;;;3.40;;
12846;SDS011;6492;48.128;8.320;2023-07-31T23:40:29;5.20;;;3.47;;
12846;SDS011;6492;48.128;8.320;2023-07-31T23:44:32;6.03;;;3.60;;
12846;SDS011;6492;48.128;8.320;2023-07-31T23:48:34;6.03;;;3.80;;
12846;SDS011;6492;48.128;8.320;2023-07-31T23:52:37;4.67;;;3.87;;
12846;SDS011;6492;48.128;8.320;2023-07-31T23:56:40;5.93;;;4.13;;
